sensor_id;sensor_type;location;lat;lon;timestamp;temperature;humidity
2391;DHT22;22957;50.824;4.360;2022-11-20T00:02:15;5.70;99.90
2391;DHT22;22957;50.824;4.360;2022-11-20T00:04:41;5.10;99.90
2391;DHT22;22957;50.824;4.360;2022-11-20T00:07:07;5.20;99.90
2391;DHT22;22957;50.824;4.360;2022-11-20T00:09:33;4.60;99.90
2391;DHT22;22957;50.824;4.360;2022-11-20T00:11:58;4.90;99.90
2391;DHT22;22957;50.824;4.360;2022-11-20T00:14:24;4.80;99.90
2391;DHT22;22957;50.824;4.360;2022-11-20T00:16:50;4.90;99.90
2391;DHT22;22957;50.824;4.360;2022-11-20T00:19:15;4.80;99.90
2391;DHT22;22957;50.824;4.360;2022-11-20T00:21:41;5.80;99.90
2391;DHT22;22957;50.824;4.360;2022-11-20T00:24:08;6.10;99.90
2391;DHT22;22957;50.824;4.360;2022-11-20T00:26:38;7.00;99.90
2391;DHT22;22957;50.824;4.360;2022-11-20T00:29:04;6.70;99.90
2391;DHT22;22957;50.824;4.360;2022-11-20T00:31:30;6.50;99.90
2391;DHT22;22957;50.824;4.360;2022-11-20T00:33:56;7.30;99.90
2391;DHT22;22957;50.824;4.360;2022-11-20T00:36:24;7.50;99.90
2391;DHT22;22957;50.824;4.360;2022-11-20T00:38:57;6.00;99.90
2391;DHT22;22957;50.824;4.360;2022-11-20T00:41:24;5.70;99.90
2391;DHT22;22957;50.824;4.360;2022-11-20T00:43:52;4.80;99.90
2391;DHT22;22957;50.824;4.360;2022-11-20T00:46:20;5.40;99.90
2391;DHT22;22957;50.824;4.360;2022-11-20T00:48:46;5.50;99.90
2391;DHT22;22957;50.824;4.360;2022-11-20T00:51:17;5.80;99.90
2391;DHT22;22957;50.824;4.360;2022-11-20T00:53:43;6.20;99.90
2391;DHT22;22957;50.824;4.360;2022-11-20T00:56:12;6.40;99.90
2391;DHT22;22957;50.824;4.360;2022-11-20T00:58:40;6.70;99.90
2391;DHT22;22957;50.824;4.360;2022-11-20T01:01:16;6.00;99.90
2391;DHT22;22957;50.824;4.360;2022-11-20T01:03:44;5.30;99.90
2391;DHT22;22957;50.824;4.360;2022-11-20T01:08:48;6.00;99.90
2391;DHT22;22957;50.824;4.360;2022-11-20T01:11:16;6.70;99.90
2391;DHT22;22957;50.824;4.360;2022-11-20T01:13:43;7.50;99.90
2391;DHT22;22957;50.824;4.360;2022-11-20T01:16:22;8.20;99.90
2391;DHT22;22957;50.824;4.360;2022-11-20T01:18:51;7.60;99.90
2391;DHT22;22957;50.824;4.360;2022-11-20T01:21:22;8.40;99.90
2391;DHT22;22957;50.824;4.360;2022-11-20T01:23:49;8.90;99.90
2391;DHT22;22957;50.824;4.360;2022-11-20T01:26:20;8.30;99.90
2391;DHT22;22957;50.824;4.360;2022-11-20T01:28:46;8.10;99.90
2391;DHT22;22957;50.824;4.360;2022-11-20T01:31:18;8.50;99.90
2391;DHT22;22957;50.824;4.360;2022-11-20T01:33:46;8.10;99.90
2391;DHT22;22957;50.824;4.360;2022-11-20T01:36:13;8.60;99.90
2391;DHT22;22957;50.824;4.360;2022-11-20T01:38:40;9.00;99.90
2391;DHT22;22957;50.824;4.360;2022-11-20T01:41:07;9.00;99.90
2391;DHT22;22957;50.824;4.360;2022-11-20T01:43:33;9.50;99.90
2391;DHT22;22957;50.824;4.360;2022-11-20T01:46:18;9.70;99.90
2391;DHT22;22957;50.824;4.360;2022-11-20T01:48:54;10.00;99.90
2391;DHT22;22957;50.824;4.360;2022-11-20T01:51:51;9.80;99.90
2391;DHT22;22957;50.824;4.360;2022-11-20T01:54:22;9.40;99.90
2391;DHT22;22957;50.824;4.360;2022-11-20T01:56:51;9.40;99.90
2391;DHT22;22957;50.824;4.360;2022-11-20T01:59:20;9.20;99.90
2391;DHT22;22957;50.824;4.360;2022-11-20T02:01:47;8.90;99.90
2391;DHT22;22957;50.824;4.360;2022-11-20T02:04:13;8.90;99.90
2391;DHT22;22957;50.824;4.360;2022-11-20T02:06:46;8.60;99.90
2391;DHT22;22957;50.824;4.360;2022-11-20T02:09:14;8.90;99.90
2391;DHT22;22957;50.824;4.360;2022-11-20T02:11:40;8.80;99.90
2391;DHT22;22957;50.824;4.360;2022-11-20T02:14:06;8.80;99.90
2391;DHT22;22957;50.824;4.360;2022-11-20T02:16:37;8.40;99.90
2391;DHT22;22957;50.824;4.360;2022-11-20T02:19:09;8.20;99.90
2391;DHT22;22957;50.824;4.360;2022-11-20T02:21:53;8.40;99.90
2391;DHT22;22957;50.824;4.360;2022-11-20T02:24:22;8.50;99.90
2391;DHT22;22957;50.824;4.360;2022-11-20T02:26:58;8.50;99.90
2391;DHT22;22957;50.824;4.360;2022-11-20T02:29:28;8.60;99.90
2391;DHT22;22957;50.824;4.360;2022-11-20T02:31:58;8.80;99.90
2391;DHT22;22957;50.824;4.360;2022-11-20T02:34:24;8.90;99.90
2391;DHT22;22957;50.824;4.360;2022-11-20T02:36:51;8.30;99.90
2391;DHT22;22957;50.824;4.360;2022-11-20T02:39:19;7.70;99.90
2391;DHT22;22957;50.824;4.360;2022-11-20T02:41:45;8.00;99.90
2391;DHT22;22957;50.824;4.360;2022-11-20T02:44:10;8.10;99.90
2391;DHT22;22957;50.824;4.360;2022-11-20T02:46:36;7.80;99.90
2391;DHT22;22957;50.824;4.360;2022-11-20T02:49:03;7.20;99.90
2391;DHT22;22957;50.824;4.360;2022-11-20T02:51:30;7.30;99.90
2391;DHT22;22957;50.824;4.360;2022-11-20T02:53:56;7.70;99.90
2391;DHT22;22957;50.824;4.360;2022-11-20T02:56:22;8.20;99.90
2391;DHT22;22957;50.824;4.360;2022-11-20T02:58:48;8.40;99.90
2391;DHT22;22957;50.824;4.360;2022-11-20T03:01:13;8.50;99.90
2391;DHT22;22957;50.824;4.360;2022-11-20T03:03:39;8.40;99.90
2391;DHT22;22957;50.824;4.360;2022-11-20T03:06:05;8.60;99.90
2391;DHT22;22957;50.824;4.360;2022-11-20T03:08:31;8.90;99.90
2391;DHT22;22957;50.824;4.360;2022-11-20T03:10:57;8.90;99.90
2391;DHT22;22957;50.824;4.360;2022-11-20T03:13:26;8.90;99.90
2391;DHT22;22957;50.824;4.360;2022-11-20T03:15:52;8.80;99.90
2391;DHT22;22957;50.824;4.360;2022-11-20T03:18:18;8.80;99.90
2391;DHT22;22957;50.824;4.360;2022-11-20T03:20:43;8.70;99.90
2391;DHT22;22957;50.824;4.360;2022-11-20T03:23:09;8.30;99.90
2391;DHT22;22957;50.824;4.360;2022-11-20T03:25:35;8.40;99.90
2391;DHT22;22957;50.824;4.360;2022-11-20T03:28:00;7.80;99.90
2391;DHT22;22957;50.824;4.360;2022-11-20T03:30:26;8.10;99.90
2391;DHT22;22957;50.824;4.360;2022-11-20T03:32:53;8.30;99.90
2391;DHT22;22957;50.824;4.360;2022-11-20T03:35:19;8.30;99.90
2391;DHT22;22957;50.824;4.360;2022-11-20T03:37:45;8.00;99.90
2391;DHT22;22957;50.824;4.360;2022-11-20T03:40:11;7.70;99.90
2391;DHT22;22957;50.824;4.360;2022-11-20T03:42:37;7.90;99.90
2391;DHT22;22957;50.824;4.360;2022-11-20T03:45:13;8.10;99.90
2391;DHT22;22957;50.824;4.360;2022-11-20T03:47:39;8.00;99.90
2391;DHT22;22957;50.824;4.360;2022-11-20T03:50:05;8.60;99.90
2391;DHT22;22957;50.824;4.360;2022-11-20T03:52:30;8.50;99.90
2391;DHT22;22957;50.824;4.360;2022-11-20T03:54:56;8.30;99.90
2391;DHT22;22957;50.824;4.360;2022-11-20T03:57:22;8.50;99.90
2391;DHT22;22957;50.824;4.360;2022-11-20T03:59:47;8.50;99.90
2391;DHT22;22957;50.824;4.360;2022-11-20T04:02:13;8.20;99.90
2391;DHT22;22957;50.824;4.360;2022-11-20T04:04:39;8.30;99.90
2391;DHT22;22957;50.824;4.360;2022-11-20T04:07:04;8.70;99.90
2391;DHT22;22957;50.824;4.360;2022-11-20T04:09:30;8.70;99.90
2391;DHT22;22957;50.824;4.360;2022-11-20T04:11:55;8.30;99.90
2391;DHT22;22957;50.824;4.360;2022-11-20T04:14:21;8.10;99.90
2391;DHT22;22957;50.824;4.360;2022-11-20T04:16:47;8.00;99.90
2391;DHT22;22957;50.824;4.360;2022-11-20T04:19:15;7.60;99.90
2391;DHT22;22957;50.824;4.360;2022-11-20T04:21:42;7.90;99.90
2391;DHT22;22957;50.824;4.360;2022-11-20T04:24:08;7.50;99.90
2391;DHT22;22957;50.824;4.360;2022-11-20T04:26:34;7.70;99.90
2391;DHT22;22957;50.824;4.360;2022-11-20T04:29:00;7.70;99.90
2391;DHT22;22957;50.824;4.360;2022-11-20T04:31:31;7.70;99.90
2391;DHT22;22957;50.824;4.360;2022-11-20T04:34:05;7.40;99.90
2391;DHT22;22957;50.824;4.360;2022-11-20T04:36:31;7.30;99.90
2391;DHT22;22957;50.824;4.360;2022-11-20T04:39:03;7.50;99.90
2391;DHT22;22957;50.824;4.360;2022-11-20T04:41:33;7.70;99.90
2391;DHT22;22957;50.824;4.360;2022-11-20T04:44:00;8.50;99.90
2391;DHT22;22957;50.824;4.360;2022-11-20T04:46:35;8.20;99.90
2391;DHT22;22957;50.824;4.360;2022-11-20T04:49:01;8.30;99.90
2391;DHT22;22957;50.824;4.360;2022-11-20T04:51:27;8.10;99.90
2391;DHT22;22957;50.824;4.360;2022-11-20T04:53:53;8.40;99.90
2391;DHT22;22957;50.824;4.360;2022-11-20T04:56:19;8.40;99.90
2391;DHT22;22957;50.824;4.360;2022-11-20T04:58:44;8.50;99.90
2391;DHT22;22957;50.824;4.360;2022-11-20T05:01:16;8.70;99.90
2391;DHT22;22957;50.824;4.360;2022-11-20T05:03:43;8.20;99.90
2391;DHT22;22957;50.824;4.360;2022-11-20T05:06:10;8.30;99.90
2391;DHT22;22957;50.824;4.360;2022-11-20T05:08:36;8.10;99.90
2391;DHT22;22957;50.824;4.360;2022-11-20T05:11:05;8.30;99.90
2391;DHT22;22957;50.824;4.360;2022-11-20T05:13:31;8.20;99.90
2391;DHT22;22957;50.824;4.360;2022-11-20T05:16:09;8.10;99.90
2391;DHT22;22957;50.824;4.360;2022-11-20T05:18:36;7.70;99.90
2391;DHT22;22957;50.824;4.360;2022-11-20T05:21:02;7.60;99.90
2391;DHT22;22957;50.824;4.360;2022-11-20T05:23:30;8.30;99.90
2391;DHT22;22957;50.824;4.360;2022-11-20T05:25:57;7.70;99.90
2391;DHT22;22957;50.824;4.360;2022-11-20T05:28:24;8.10;99.90
2391;DHT22;22957;50.824;4.360;2022-11-20T05:30:50;8.30;99.90
2391;DHT22;22957;50.824;4.360;2022-11-20T05:33:15;8.30;99.90
2391;DHT22;22957;50.824;4.360;2022-11-20T05:35:41;8.30;99.90
2391;DHT22;22957;50.824;4.360;2022-11-20T05:38:07;8.70;99.90
2391;DHT22;22957;50.824;4.360;2022-11-20T05:40:33;8.70;99.90
2391;DHT22;22957;50.824;4.360;2022-11-20T05:42:59;8.90;99.90
2391;DHT22;22957;50.824;4.360;2022-11-20T05:45:25;9.30;99.90
2391;DHT22;22957;50.824;4.360;2022-11-20T05:47:51;8.90;99.90
2391;DHT22;22957;50.824;4.360;2022-11-20T05:50:16;8.90;99.90
2391;DHT22;22957;50.824;4.360;2022-11-20T05:52:42;8.80;99.90
2391;DHT22;22957;50.824;4.360;2022-11-20T05:55:08;8.60;99.90
2391;DHT22;22957;50.824;4.360;2022-11-20T05:57:34;8.80;99.90
2391;DHT22;22957;50.824;4.360;2022-11-20T05:59:59;8.20;99.90
2391;DHT22;22957;50.824;4.360;2022-11-20T06:02:25;8.00;99.90
2391;DHT22;22957;50.824;4.360;2022-11-20T06:04:51;8.20;99.90
2391;DHT22;22957;50.824;4.360;2022-11-20T06:07:16;8.20;99.90
2391;DHT22;22957;50.824;4.360;2022-11-20T06:09:42;8.40;99.90
2391;DHT22;22957;50.824;4.360;2022-11-20T06:12:08;8.40;99.90
2391;DHT22;22957;50.824;4.360;2022-11-20T06:14:33;8.40;99.90
2391;DHT22;22957;50.824;4.360;2022-11-20T06:16:59;8.50;99.90
2391;DHT22;22957;50.824;4.360;2022-11-20T06:19:25;8.50;99.90
2391;DHT22;22957;50.824;4.360;2022-11-20T06:21:50;8.20;99.90
2391;DHT22;22957;50.824;4.360;2022-11-20T06:24:17;7.80;99.90
2391;DHT22;22957;50.824;4.360;2022-11-20T06:26:43;8.30;99.90
2391;DHT22;22957;50.824;4.360;2022-11-20T06:29:09;7.90;99.90
2391;DHT22;22957;50.824;4.360;2022-11-20T06:31:35;7.90;99.90
2391;DHT22;22957;50.824;4.360;2022-11-20T06:34:04;7.80;99.90
2391;DHT22;22957;50.824;4.360;2022-11-20T06:36:30;8.00;99.90
2391;DHT22;22957;50.824;4.360;2022-11-20T06:38:56;8.20;99.90
2391;DHT22;22957;50.824;4.360;2022-11-20T06:41:22;8.30;99.90
2391;DHT22;22957;50.824;4.360;2022-11-20T06:43:48;8.30;99.90
2391;DHT22;22957;50.824;4.360;2022-11-20T06:46:15;8.40;99.90
2391;DHT22;22957;50.824;4.360;2022-11-20T06:48:44;8.50;99.90
2391;DHT22;22957;50.824;4.360;2022-11-20T06:51:11;8.50;99.90
2391;DHT22;22957;50.824;4.360;2022-11-20T06:53:37;8.40;99.90
2391;DHT22;22957;50.824;4.360;2022-11-20T06:56:03;8.40;99.90
2391;DHT22;22957;50.824;4.360;2022-11-20T06:58:31;8.70;99.90
2391;DHT22;22957;50.824;4.360;2022-11-20T07:01:01;8.40;99.90
2391;DHT22;22957;50.824;4.360;2022-11-20T07:03:27;8.60;99.90
2391;DHT22;22957;50.824;4.360;2022-11-20T07:05:57;8.90;99.90
2391;DHT22;22957;50.824;4.360;2022-11-20T07:08:24;8.60;99.90
2391;DHT22;22957;50.824;4.360;2022-11-20T07:10:50;8.50;99.90
2391;DHT22;22957;50.824;4.360;2022-11-20T07:13:15;8.90;99.90
2391;DHT22;22957;50.824;4.360;2022-11-20T07:15:41;8.60;99.90
2391;DHT22;22957;50.824;4.360;2022-11-20T07:18:07;8.90;99.90
2391;DHT22;22957;50.824;4.360;2022-11-20T07:20:32;8.60;99.90
2391;DHT22;22957;50.824;4.360;2022-11-20T07:22:58;8.80;99.90
2391;DHT22;22957;50.824;4.360;2022-11-20T07:25:27;8.80;99.90
2391;DHT22;22957;50.824;4.360;2022-11-20T07:28:00;8.90;99.90
2391;DHT22;22957;50.824;4.360;2022-11-20T07:30:29;8.80;99.90
2391;DHT22;22957;50.824;4.360;2022-11-20T07:32:55;8.40;99.90
2391;DHT22;22957;50.824;4.360;2022-11-20T07:35:22;8.60;99.90
2391;DHT22;22957;50.824;4.360;2022-11-20T07:37:48;8.70;99.90
2391;DHT22;22957;50.824;4.360;2022-11-20T07:40:15;8.40;99.90
2391;DHT22;22957;50.824;4.360;2022-11-20T07:42:48;8.80;99.90
2391;DHT22;22957;50.824;4.360;2022-11-20T07:45:14;8.70;99.90
2391;DHT22;22957;50.824;4.360;2022-11-20T07:47:40;8.40;99.90
2391;DHT22;22957;50.824;4.360;2022-11-20T07:50:06;8.60;99.90
2391;DHT22;22957;50.824;4.360;2022-11-20T07:52:32;8.60;99.90
2391;DHT22;22957;50.824;4.360;2022-11-20T07:54:58;8.40;99.90
2391;DHT22;22957;50.824;4.360;2022-11-20T07:57:24;8.70;99.90
2391;DHT22;22957;50.824;4.360;2022-11-20T07:59:49;8.80;99.90
2391;DHT22;22957;50.824;4.360;2022-11-20T08:02:15;8.70;99.90
2391;DHT22;22957;50.824;4.360;2022-11-20T08:04:41;8.50;99.90
2391;DHT22;22957;50.824;4.360;2022-11-20T08:07:06;8.70;99.90
2391;DHT22;22957;50.824;4.360;2022-11-20T08:09:32;8.50;99.90
2391;DHT22;22957;50.824;4.360;2022-11-20T08:11:58;8.70;99.90
2391;DHT22;22957;50.824;4.360;2022-11-20T08:14:42;9.00;99.90
2391;DHT22;22957;50.824;4.360;2022-11-20T08:17:08;9.00;99.90
2391;DHT22;22957;50.824;4.360;2022-11-20T08:19:33;8.90;99.90
2391;DHT22;22957;50.824;4.360;2022-11-20T08:21:59;9.30;99.90
2391;DHT22;22957;50.824;4.360;2022-11-20T08:24:25;9.60;99.90
2391;DHT22;22957;50.824;4.360;2022-11-20T08:26:52;9.30;99.90
2391;DHT22;22957;50.824;4.360;2022-11-20T08:29:18;9.60;99.90
2391;DHT22;22957;50.824;4.360;2022-11-20T08:31:44;9.40;99.90
2391;DHT22;22957;50.824;4.360;2022-11-20T08:34:09;9.40;99.90
2391;DHT22;22957;50.824;4.360;2022-11-20T08:36:35;9.50;99.90
2391;DHT22;22957;50.824;4.360;2022-11-20T08:39:02;9.30;99.90
2391;DHT22;22957;50.824;4.360;2022-11-20T08:41:29;9.40;99.90
2391;DHT22;22957;50.824;4.360;2022-11-20T08:44:02;9.40;99.90
2391;DHT22;22957;50.824;4.360;2022-11-20T08:46:34;9.80;99.90
2391;DHT22;22957;50.824;4.360;2022-11-20T08:49:05;9.50;99.90
2391;DHT22;22957;50.824;4.360;2022-11-20T08:51:33;10.10;99.90
2391;DHT22;22957;50.824;4.360;2022-11-20T08:53:59;10.40;99.90
2391;DHT22;22957;50.824;4.360;2022-11-20T08:56:24;10.30;99.90
2391;DHT22;22957;50.824;4.360;2022-11-20T08:58:51;10.30;99.90
2391;DHT22;22957;50.824;4.360;2022-11-20T09:01:21;10.30;99.90
2391;DHT22;22957;50.824;4.360;2022-11-20T09:03:47;10.80;99.90
2391;DHT22;22957;50.824;4.360;2022-11-20T09:06:14;10.70;99.90
2391;DHT22;22957;50.824;4.360;2022-11-20T09:08:40;10.90;99.90
2391;DHT22;22957;50.824;4.360;2022-11-20T09:11:06;11.10;99.90
2391;DHT22;22957;50.824;4.360;2022-11-20T09:13:33;10.70;99.90
2391;DHT22;22957;50.824;4.360;2022-11-20T09:16:08;10.90;99.90
2391;DHT22;22957;50.824;4.360;2022-11-20T09:18:34;11.30;99.90
2391;DHT22;22957;50.824;4.360;2022-11-20T09:21:06;11.00;99.90
2391;DHT22;22957;50.824;4.360;2022-11-20T09:23:34;10.90;99.90
2391;DHT22;22957;50.824;4.360;2022-11-20T09:26:15;11.30;99.90
2391;DHT22;22957;50.824;4.360;2022-11-20T09:28:41;11.10;99.90
2391;DHT22;22957;50.824;4.360;2022-11-20T09:31:08;11.30;99.90
2391;DHT22;22957;50.824;4.360;2022-11-20T09:33:35;11.30;99.90
2391;DHT22;22957;50.824;4.360;2022-11-20T09:36:01;11.30;99.90
2391;DHT22;22957;50.824;4.360;2022-11-20T09:38:27;11.20;99.90
2391;DHT22;22957;50.824;4.360;2022-11-20T09:40:58;11.50;99.90
2391;DHT22;22957;50.824;4.360;2022-11-20T09:44:11;11.30;99.90
2391;DHT22;22957;50.824;4.360;2022-11-20T09:47:12;11.70;99.90
2391;DHT22;22957;50.824;4.360;2022-11-20T09:50:23;11.40;99.90
2391;DHT22;22957;50.824;4.360;2022-11-20T09:55:29;11.40;99.90
2391;DHT22;22957;50.824;4.360;2022-11-20T09:57:57;11.50;99.90
2391;DHT22;22957;50.824;4.360;2022-11-20T10:00:23;11.80;99.90
2391;DHT22;22957;50.824;4.360;2022-11-20T10:03:01;11.70;99.90
2391;DHT22;22957;50.824;4.360;2022-11-20T10:05:31;11.60;99.90
2391;DHT22;22957;50.824;4.360;2022-11-20T10:08:21;11.60;99.90
2391;DHT22;22957;50.824;4.360;2022-11-20T10:11:00;11.70;99.90
2391;DHT22;22957;50.824;4.360;2022-11-20T10:19:08;11.60;99.90
2391;DHT22;22957;50.824;4.360;2022-11-20T10:22:22;11.70;99.90
2391;DHT22;22957;50.824;4.360;2022-11-20T10:28:16;12.10;99.90
2391;DHT22;22957;50.824;4.360;2022-11-20T10:30:55;12.20;99.90
2391;DHT22;22957;50.824;4.360;2022-11-20T10:33:24;12.50;99.90
2391;DHT22;22957;50.824;4.360;2022-11-20T10:38:42;12.70;99.90
2391;DHT22;22957;50.824;4.360;2022-11-20T10:41:26;12.50;99.90
2391;DHT22;22957;50.824;4.360;2022-11-20T10:44:05;12.70;99.90
2391;DHT22;22957;50.824;4.360;2022-11-20T10:46:43;12.50;99.90
2391;DHT22;22957;50.824;4.360;2022-11-20T10:49:15;13.00;99.90
2391;DHT22;22957;50.824;4.360;2022-11-20T10:54:54;12.70;99.90
2391;DHT22;22957;50.824;4.360;2022-11-20T10:57:59;12.80;99.90
2391;DHT22;22957;50.824;4.360;2022-11-20T11:00:30;12.30;99.90
2391;DHT22;22957;50.824;4.360;2022-11-20T11:02:56;12.80;99.90
2391;DHT22;22957;50.824;4.360;2022-11-20T11:08:12;12.40;99.90
2391;DHT22;22957;50.824;4.360;2022-11-20T11:13:22;12.50;99.90
2391;DHT22;22957;50.824;4.360;2022-11-20T11:15:48;12.70;99.90
2391;DHT22;22957;50.824;4.360;2022-11-20T11:18:27;12.60;99.90
2391;DHT22;22957;50.824;4.360;2022-11-20T11:20:54;12.40;99.90
2391;DHT22;22957;50.824;4.360;2022-11-20T11:23:39;12.60;99.90
2391;DHT22;22957;50.824;4.360;2022-11-20T11:26:26;13.00;99.90
2391;DHT22;22957;50.824;4.360;2022-11-20T11:29:03;12.50;99.90
2391;DHT22;22957;50.824;4.360;2022-11-20T11:31:35;12.40;99.90
2391;DHT22;22957;50.824;4.360;2022-11-20T11:34:14;13.10;99.90
2391;DHT22;22957;50.824;4.360;2022-11-20T11:36:41;12.70;99.90
2391;DHT22;22957;50.824;4.360;2022-11-20T11:39:15;12.80;99.90
2391;DHT22;22957;50.824;4.360;2022-11-20T11:41:41;12.60;99.90
2391;DHT22;22957;50.824;4.360;2022-11-20T11:44:20;12.80;99.90
2391;DHT22;22957;50.824;4.360;2022-11-20T11:47:12;12.40;99.90
2391;DHT22;22957;50.824;4.360;2022-11-20T11:49:43;12.80;99.90
2391;DHT22;22957;50.824;4.360;2022-11-20T11:52:18;12.50;99.90
2391;DHT22;22957;50.824;4.360;2022-11-20T11:57:36;12.10;99.90
2391;DHT22;22957;50.824;4.360;2022-11-20T12:00:14;12.20;99.90
2391;DHT22;22957;50.824;4.360;2022-11-20T12:05:36;12.10;99.90
2391;DHT22;22957;50.824;4.360;2022-11-20T12:08:57;11.80;99.90
2391;DHT22;22957;50.824;4.360;2022-11-20T12:14:20;11.90;99.90
2391;DHT22;22957;50.824;4.360;2022-11-20T12:16:50;11.80;99.90
2391;DHT22;22957;50.824;4.360;2022-11-20T12:19:18;11.20;99.90
2391;DHT22;22957;50.824;4.360;2022-11-20T12:27:52;10.70;99.90
2391;DHT22;22957;50.824;4.360;2022-11-20T12:30:22;10.30;99.90
2391;DHT22;22957;50.824;4.360;2022-11-20T12:43:47;10.70;99.90
2391;DHT22;22957;50.824;4.360;2022-11-20T12:46:46;10.90;99.90
2391;DHT22;22957;50.824;4.360;2022-11-20T12:49:33;11.10;99.90
2391;DHT22;22957;50.824;4.360;2022-11-20T12:52:25;11.00;99.90
2391;DHT22;22957;50.824;4.360;2022-11-20T12:57:57;10.70;99.90
2391;DHT22;22957;50.824;4.360;2022-11-20T13:00:24;11.00;99.90
2391;DHT22;22957;50.824;4.360;2022-11-20T13:03:06;11.00;99.90
2391;DHT22;22957;50.824;4.360;2022-11-20T13:05:53;11.20;99.90
2391;DHT22;22957;50.824;4.360;2022-11-20T13:08:34;11.10;99.90
2391;DHT22;22957;50.824;4.360;2022-11-20T13:13:40;11.00;99.90
2391;DHT22;22957;50.824;4.360;2022-11-20T13:19:11;11.00;99.90
2391;DHT22;22957;50.824;4.360;2022-11-20T13:21:43;11.00;99.90
2391;DHT22;22957;50.824;4.360;2022-11-20T13:26:45;10.90;99.90
2391;DHT22;22957;50.824;4.360;2022-11-20T13:29:17;11.00;99.90
2391;DHT22;22957;50.824;4.360;2022-11-20T13:31:44;10.80;99.90
2391;DHT22;22957;50.824;4.360;2022-11-20T13:34:23;10.50;99.90
2391;DHT22;22957;50.824;4.360;2022-11-20T13:36:52;10.70;99.90
2391;DHT22;22957;50.824;4.360;2022-11-20T13:39:26;10.70;99.90
2391;DHT22;22957;50.824;4.360;2022-11-20T13:42:25;10.40;99.90
2391;DHT22;22957;50.824;4.360;2022-11-20T13:44:55;10.60;99.90
2391;DHT22;22957;50.824;4.360;2022-11-20T13:47:23;10.70;99.90
2391;DHT22;22957;50.824;4.360;2022-11-20T13:49:51;11.00;99.90
2391;DHT22;22957;50.824;4.360;2022-11-20T13:55:15;11.10;99.90
2391;DHT22;22957;50.824;4.360;2022-11-20T14:00:32;11.10;99.90
2391;DHT22;22957;50.824;4.360;2022-11-20T14:03:20;11.10;99.90
2391;DHT22;22957;50.824;4.360;2022-11-20T14:05:57;11.30;99.90
2391;DHT22;22957;50.824;4.360;2022-11-20T14:08:35;11.20;99.90
2391;DHT22;22957;50.824;4.360;2022-11-20T14:11:16;11.10;99.90
2391;DHT22;22957;50.824;4.360;2022-11-20T14:16:23;11.00;99.90
2391;DHT22;22957;50.824;4.360;2022-11-20T14:18:49;11.10;99.90
2391;DHT22;22957;50.824;4.360;2022-11-20T14:21:29;11.10;99.90
2391;DHT22;22957;50.824;4.360;2022-11-20T14:24:11;10.90;99.90
2391;DHT22;22957;50.824;4.360;2022-11-20T14:26:42;11.10;99.90
2391;DHT22;22957;50.824;4.360;2022-11-20T14:31:42;10.70;99.90
2391;DHT22;22957;50.824;4.360;2022-11-20T14:34:20;11.00;99.90
2391;DHT22;22957;50.824;4.360;2022-11-20T14:36:46;10.70;99.90
2391;DHT22;22957;50.824;4.360;2022-11-20T14:39:20;10.50;99.90
2391;DHT22;22957;50.824;4.360;2022-11-20T14:41:51;11.00;99.90
2391;DHT22;22957;50.824;4.360;2022-11-20T14:44:17;10.40;99.90
2391;DHT22;22957;50.824;4.360;2022-11-20T14:46:43;10.40;99.90
2391;DHT22;22957;50.824;4.360;2022-11-20T14:49:10;10.80;99.90
2391;DHT22;22957;50.824;4.360;2022-11-20T14:51:40;10.20;99.90
2391;DHT22;22957;50.824;4.360;2022-11-20T14:54:11;10.50;99.90
2391;DHT22;22957;50.824;4.360;2022-11-20T14:56:40;10.70;99.90
2391;DHT22;22957;50.824;4.360;2022-11-20T14:59:06;10.60;99.90
2391;DHT22;22957;50.824;4.360;2022-11-20T15:01:33;10.90;99.90
2391;DHT22;22957;50.824;4.360;2022-11-20T15:04:08;10.90;99.90
2391;DHT22;22957;50.824;4.360;2022-11-20T15:06:55;10.70;99.90
2391;DHT22;22957;50.824;4.360;2022-11-20T15:09:42;10.60;99.90
2391;DHT22;22957;50.824;4.360;2022-11-20T15:12:18;11.00;99.90
2391;DHT22;22957;50.824;4.360;2022-11-20T15:14:47;10.70;99.90
2391;DHT22;22957;50.824;4.360;2022-11-20T15:17:13;10.40;99.90
2391;DHT22;22957;50.824;4.360;2022-11-20T15:19:40;10.10;99.90
2391;DHT22;22957;50.824;4.360;2022-11-20T15:22:11;10.30;99.90
2391;DHT22;22957;50.824;4.360;2022-11-20T15:24:38;10.20;99.90
2391;DHT22;22957;50.824;4.360;2022-11-20T15:27:07;10.50;99.90
2391;DHT22;22957;50.824;4.360;2022-11-20T15:29:33;10.40;99.90
2391;DHT22;22957;50.824;4.360;2022-11-20T15:31:58;11.00;99.90
2391;DHT22;22957;50.824;4.360;2022-11-20T15:34:26;11.00;99.90
2391;DHT22;22957;50.824;4.360;2022-11-20T15:36:52;10.80;99.90
2391;DHT22;22957;50.824;4.360;2022-11-20T15:39:19;10.90;99.90
2391;DHT22;22957;50.824;4.360;2022-11-20T15:41:45;11.10;99.90
2391;DHT22;22957;50.824;4.360;2022-11-20T15:44:11;11.00;99.90
2391;DHT22;22957;50.824;4.360;2022-11-20T15:46:42;11.30;99.90
2391;DHT22;22957;50.824;4.360;2022-11-20T15:49:15;11.10;99.90
2391;DHT22;22957;50.824;4.360;2022-11-20T15:51:44;10.90;99.90
2391;DHT22;22957;50.824;4.360;2022-11-20T15:54:12;11.30;99.90
2391;DHT22;22957;50.824;4.360;2022-11-20T15:56:38;11.30;99.90
2391;DHT22;22957;50.824;4.360;2022-11-20T15:59:04;11.30;99.90
2391;DHT22;22957;50.824;4.360;2022-11-20T16:01:30;11.40;99.90
2391;DHT22;22957;50.824;4.360;2022-11-20T16:03:56;11.50;99.90
2391;DHT22;22957;50.824;4.360;2022-11-20T16:06:22;11.40;99.90
2391;DHT22;22957;50.824;4.360;2022-11-20T16:08:48;11.40;99.90
2391;DHT22;22957;50.824;4.360;2022-11-20T16:11:15;11.40;99.90
2391;DHT22;22957;50.824;4.360;2022-11-20T16:13:42;10.90;99.90
2391;DHT22;22957;50.824;4.360;2022-11-20T16:16:34;11.40;99.90
2391;DHT22;22957;50.824;4.360;2022-11-20T16:19:00;11.50;99.90
2391;DHT22;22957;50.824;4.360;2022-11-20T16:21:26;11.40;99.90
2391;DHT22;22957;50.824;4.360;2022-11-20T16:24:00;11.60;99.90
2391;DHT22;22957;50.824;4.360;2022-11-20T16:26:27;11.10;99.90
2391;DHT22;22957;50.824;4.360;2022-11-20T16:28:53;11.20;99.90
2391;DHT22;22957;50.824;4.360;2022-11-20T16:31:20;10.90;99.90
2391;DHT22;22957;50.824;4.360;2022-11-20T16:34:06;10.90;99.90
2391;DHT22;22957;50.824;4.360;2022-11-20T16:36:32;10.90;99.90
2391;DHT22;22957;50.824;4.360;2022-11-20T16:39:04;11.00;99.90
2391;DHT22;22957;50.824;4.360;2022-11-20T16:41:31;10.50;99.90
2391;DHT22;22957;50.824;4.360;2022-11-20T16:43:59;10.60;99.90
2391;DHT22;22957;50.824;4.360;2022-11-20T16:46:30;10.70;99.90
2391;DHT22;22957;50.824;4.360;2022-11-20T16:49:03;10.90;99.90
2391;DHT22;22957;50.824;4.360;2022-11-20T16:51:31;11.30;99.90
2391;DHT22;22957;50.824;4.360;2022-11-20T16:54:19;11.10;99.90
2391;DHT22;22957;50.824;4.360;2022-11-20T16:56:48;11.10;99.90
2391;DHT22;22957;50.824;4.360;2022-11-20T16:59:16;10.90;99.90
2391;DHT22;22957;50.824;4.360;2022-11-20T17:01:42;11.00;99.90
2391;DHT22;22957;50.824;4.360;2022-11-20T17:04:09;11.20;99.90
2391;DHT22;22957;50.824;4.360;2022-11-20T17:06:38;11.50;99.90
2391;DHT22;22957;50.824;4.360;2022-11-20T17:09:09;11.30;99.90
2391;DHT22;22957;50.824;4.360;2022-11-20T17:11:36;11.10;99.90
2391;DHT22;22957;50.824;4.360;2022-11-20T17:14:02;10.90;99.90
2391;DHT22;22957;50.824;4.360;2022-11-20T17:16:29;11.30;99.90
2391;DHT22;22957;50.824;4.360;2022-11-20T17:18:56;11.40;99.90
2391;DHT22;22957;50.824;4.360;2022-11-20T17:21:23;11.30;99.90
2391;DHT22;22957;50.824;4.360;2022-11-20T17:23:48;11.00;99.90
2391;DHT22;22957;50.824;4.360;2022-11-20T17:28:57;11.50;99.90